Latest Coastal Weather Observations for Darwin Airport

IDD60701

Issued at 8:51 am CST Monday 15 February 2016 (issued every 10 minutes, with the page automatically refreshed every 10 minutes)

About coastal observations | Map of coastal stations | Coastal observations for NT | Marine services | Other Formats
Station Details ID: 014015 Name: DARWIN AIRPORT Lat: -12.42 Lon: 130.89 Height: 30.4 m
Data from the previous 72 hours. | See also: Recent months at Darwin Airport
Date/Time
CST
Temp

°C
Wind Pressure Rain
since 9am
mm
Weather Cloud Vis
km
Sea
Height
m
Swell
Dir
 
Speed
knots
Gust
knots
hPa Trend Height
m
Period
s
Dir
15/08:30am 29.9 SW 6 7 1010.3 - 5.0 - Mostly clear 10 - - - -
15/08:00am 29.3 WSW 5 7 1010.0 - 5.0 - - 10 - - - -
15/07:30am 27.9 SW 6 7 1009.5 - 5.0 - Mostly clear 10 - - - -
15/07:00am 27.5 SW 3 6 1009.3 - 5.0 - Mostly clear 10 - - - -
15/06:30am 27.0 WNW 3 4 1009.0 - 5.0 - Mostly clear 10 - - - -
15/06:00am 26.8 SW 1 4 1008.3 R 5.0 Distant precip. Mostly cloudy 30 - - - -
15/05:30am 26.6 SW 4 5 1008.1 - 5.0 - - 10 - - - -
15/05:00am 26.7 CALM 0 0 1007.9 - 5.0 - - 10 - - - -
15/04:30am 26.5 CALM 0 0 1007.6 - 5.0 - Partly cloudy 10 - - - -
15/04:00am 26.2 ENE 4 6 1007.6 - 5.0 - Partly cloudy 10 - - - -
15/03:30am 26.3 SW 5 8 1007.6 - 5.0 - - 10 - - - -
15/03:00am 26.4 N 7 10 1007.5 F 5.0 Showers Cloudy 10 - - - -
15/02:30am 26.2 CALM 0 0 1008.4 - 4.8 - Partly cloudy 10 - - - -
15/02:00am 26.7 WNW 3 4 1008.5 - 4.8 - - 10 - - - -
15/01:30am 26.9 NW 7 9 1009.0 - 4.8 - Mostly clear 10 - - - -
15/01:00am 26.8 NW 10 12 1009.1 - 4.8 - - 10 - - - -
15/12:30am 25.9 W 5 6 1010.0 - 4.8 - - 10 - - - -
15/12:00am 25.7 NW 4 6 1010.1 F 4.8 Fine Partly cloudy 30 - - - -
 
Date/Time
CST
Temp

°C
Wind Pressure Rain
since 9am
mm
Weather Cloud Vis
km
Sea
Height
m
Swell
Dir
 
Speed
knots
Gust
knots
hPa Trend Height
m
Period
s
Dir
14/11:30pm 25.8 NW 6 9 1010.5 - 4.8 - - 10 - - - -
14/11:00pm 25.3 S 6 8 1010.2 - 4.8 - - 10 - - - -
14/10:30pm 24.7 S 7 9 1010.8 - 4.8 - - 10 - - - -
14/10:00pm 24.4 S 5 6 1011.8 - 4.8 Rain Cloudy 10 - - - -
14/09:30pm 23.7 NE 9 11 1011.9 - 4.6 - Partly cloudy 9 - - - -
14/09:00pm 24.2 ESE 17 23 1012.7 R 4.0 Showers Cloudy 12 - - - -
14/08:43pm 24.0 E 22 30 1012.6 - 1.2 Showers Mostly clear 3 - - - -
14/08:40pm 24.0 E 22 30 1012.4 - 0.6 Showers Mostly clear 5 - - - -
14/08:30pm 24.6 E 21 29 1012.0 - 0.2 - Mostly clear 9 - - - -
14/08:00pm 25.8 E 24 34 1011.1 - 0.0 Showers Mostly clear 7 - - - -
14/07:40pm 27.9 ESE 15 32 1010.7 - 0.0 Thunder Mostly clear 10 - - - -
14/07:38pm 29.4 SE 12 22 1010.4 - 0.0 Thunder Mostly clear 10 - - - -
14/07:30pm 29.7 WSW 6 9 1009.4 - 0.0 - Mostly clear 10 - - - -
14/07:00pm 30.2 W 11 15 1007.9 - 0.0 - Mostly clear 10 - - - -
14/06:30pm 31.1 W 11 14 1007.0 - 0.0 - Mostly clear 10 - - - -
14/06:00pm 32.0 WNW 14 20 1006.0 F 0.0 Fine Partly cloudy 30 - - - -
14/05:30pm 32.3 W 15 20 1005.6 - 0.0 - Mostly clear 10 - - - -
14/05:00pm 32.8 W 17 22 1006.2 - 0.0 - Mostly clear 10 - - - -
14/04:30pm 33.2 W 15 19 1005.9 - 0.0 - Mostly clear 10 - - - -
14/04:00pm 33.5 W 13 20 1005.6 - 0.0 - Mostly clear 10 - - - -
14/03:30pm 33.8 WNW 14 17 1005.9 - 0.0 - Mostly clear 10 - - - -
14/03:00pm 33.6 WNW 14 17 1006.4 F 0.0 Distant precip. Mostly clear 30 - - - -
14/02:30pm 33.5 WNW 16 19 1006.9 - 0.0 - Mostly clear 10 - - - -
14/02:00pm 33.2 WNW 16 20 1007.3 - 0.0 - Mostly clear 10 - - - -
14/01:30pm 33.6 WNW 15 19 1007.5 - 0.0 - Mostly clear 10 - - - -
14/01:00pm 33.9 WNW 13 16 1008.1 - 0.0 - Mostly clear 10 - - - -
14/12:30pm 33.5 NW 12 16 1008.3 - 0.0 - Mostly clear 10 - - - -
14/12:00pm 33.1 W 9 14 1008.7 R 0.0 Fine Mostly clear 30 - - - -
14/11:30am 33.4 WSW 9 14 1009.1 - 0.0 - Mostly clear 10 - - - -
14/11:00am 32.7 WSW 9 15 1009.2 - 0.0 - Mostly clear 10 - - - -
14/10:30am 32.1 W 7 10 1009.2 - 0.0 - Mostly clear 10 - - - -
14/10:00am 32.0 WSW 9 11 1009.2 - 0.0 - Mostly clear 10 - - - -
14/09:30am 31.2 SW 8 10 1009.3 - 0.0 - Mostly clear 10 - - - -
14/09:00am 30.8 W 9 13 1009.1 F 9.8 Fine Mostly clear 30 - - - -
14/08:30am 30.2 W 9 11 1008.7 - 9.8 - Mostly clear 10 - - - -
14/08:00am 29.6 W 8 10 1008.0 - 9.8 - Mostly clear 10 - - - -
14/07:30am 29.0 W 6 8 1008.3 - 9.8 - Mostly clear 10 - - - -
14/07:00am 28.2 W 7 8 1007.9 - 9.8 - Mostly clear 10 - - - -
14/06:30am 28.2 W 6 7 1007.8 - 9.8 - Mostly clear 10 - - - -
14/06:00am 28.1 W 5 6 1007.7 R 9.8 Fine Mostly clear 30 - - - -
14/05:30am 28.1 W 5 7 1007.4 - 9.8 - Mostly clear 10 - - - -
14/05:00am 28.1 WSW 5 6 1007.1 - 9.8 - - 10 - - - -
14/04:30am 28.3 W 5 6 1006.9 - 9.8 - - 10 - - - -
14/04:00am 28.3 W 6 7 1006.9 - 9.8 - - 10 - - - -
14/03:30am 28.5 W 6 7 1007.1 - 9.8 - - 10 - - - -
14/03:00am 28.7 W 6 8 1007.2 F 9.8 - - 10 - - - -
14/02:30am 28.7 W 8 12 1007.3 - 9.8 - - 10 - - - -
14/02:00am 28.7 W 7 10 1007.7 - 9.8 - Mostly clear 10 - - - -
14/01:30am 28.8 W 9 12 1008.1 - 9.8 - Mostly clear 10 - - - -
14/01:00am 28.6 W 8 10 1008.6 - 9.8 - Mostly clear 10 - - - -
14/12:30am 28.6 WSW 8 11 1009.1 - 9.8 - - 10 - - - -
14/12:00am 28.6 W 8 12 1009.2 S 9.8 Fine Mostly cloudy 30 - - - -
 
Date/Time
CST
Temp

°C
Wind Pressure Rain
since 9am
mm
Weather Cloud Vis
km
Sea
Height
m
Swell
Dir
 
Speed
knots
Gust
knots
hPa Trend Height
m
Period
s
Dir
13/11:30pm 28.5 W 8 10 1009.4 - 9.8 - - 10 - - - -
13/11:00pm 28.5 W 8 10 1009.3 - 9.8 - - 10 - - - -
13/10:30pm 28.5 W 8 10 1009.2 - 9.8 - - 10 - - - -
13/10:00pm 27.4 W 8 10 1009.1 - 9.8 - - 10 - - - -
13/09:30pm 26.7 W 6 8 1008.8 - 9.8 - - 10 - - - -
13/09:00pm 25.9 W 7 8 1008.6 F 9.8 Fine Mostly cloudy 30 - - - -
13/08:30pm 25.7 WSW 6 9 1008.6 - 9.8 - Mostly clear 10 - - - -
13/08:00pm 25.0 N 8 9 1008.6 - 9.8 - Mostly clear 10 - - - -
13/07:30pm 24.6 E 15 21 1009.6 - 7.4 - Partly cloudy 5 - - - -
13/07:14pm 25.4 E 16 23 1009.5 - 1.2 Showers Partly cloudy 2 - - - -
13/07:10pm 26.7 E 17 23 1009.2 - 0.2 Thunderstorm Mostly clear 10 - - - -
13/07:00pm 27.8 SSE 12 26 1009.0 - 0.2 Thunderstorm Mostly clear 10 - - - -
13/06:56pm 28.4 SW 9 26 1008.7 - 0.2 Showers Partly cloudy 10 - - - -
13/06:30pm 31.0 W 10 13 1007.1 - 0.2 - Mostly clear 10 - - - -
13/06:00pm 30.7 WNW 9 14 1007.2 R 0.2 Thunder Mostly cloudy 30 - - - -
13/05:30pm 30.7 WNW 12 16 1006.7 - 0.2 - Mostly clear 10 - - - -
13/05:00pm 31.0 W 14 17 1006.7 - 0.2 - Mostly clear 10 - - - -
13/04:30pm 31.4 WNW 15 20 1006.6 - 0.2 - Mostly clear 10 - - - -
13/04:00pm 31.6 WNW 16 20 1006.7 - 0.2 - Mostly clear 10 - - - -
13/03:30pm 33.0 WNW 16 20 1006.7 - 0.2 - Mostly clear 10 - - - -
13/03:00pm 32.8 WNW 16 19 1006.9 F 0.2 Fine Mostly cloudy 30 - - - -
13/02:30pm 32.0 WNW 15 17 1007.1 - 0.2 - Mostly clear 10 - - - -
13/02:00pm 32.0 WNW 13 16 1007.2 - 0.2 - Mostly clear 10 - - - -
13/01:30pm 32.1 NW 9 15 1007.5 - 0.2 - Mostly clear 10 - - - -
13/01:00pm 31.6 NW 7 10 1008.1 - 0.2 - Mostly clear 10 - - - -
13/12:30pm 31.4 NW 9 14 1008.6 - 0.2 - Mostly clear 10 - - - -
13/12:00pm 30.7 WNW 7 9 1009.1 F 0.0 Fine Mostly cloudy 30 - - - -
13/11:30am 30.2 WNW 7 9 1009.3 - 0.0 - Mostly clear 10 - - - -
13/11:00am 30.0 NW 7 10 1009.7 - 0.0 - Mostly clear 10 - - - -
13/10:30am 29.7 WNW 6 8 1009.9 - 0.0 - Mostly clear 10 - - - -
13/10:00am 28.6 WSW 5 6 1009.8 - 0.0 - Mostly clear 10 - - - -
13/09:30am 27.5 W 5 6 1010.1 - 0.0 - Mostly clear 10 - - - -
13/09:00am 26.8 NW 1 5 1010.4 R 0.4 Fine Mostly cloudy 20 - - - -
13/08:30am 26.5 NNW 4 5 1010.3 - 0.4 - Mostly clear 10 - - - -
13/08:00am 26.5 N 7 10 1010.1 - 0.4 - Mostly clear 10 - - - -
13/07:30am 25.3 N 7 8 1009.8 - 0.4 - Mostly clear 9 - - - -
13/07:00am 25.4 NE 13 17 1009.1 - 0.4 Showers Partly cloudy 10 - - - -
13/06:30am 26.2 E 8 17 1008.6 - 0.4 - Mostly cloudy 10 - - - -
13/06:06am 28.2 ESE 6 8 1007.8 - 0.2 Showers Mostly clear 5 - - - -
13/06:00am 28.2 SSE 7 8 1007.8 R 0.2 Thunder Mostly cloudy 20 - - - -
13/05:30am 28.6 SSW 7 8 1007.3 - 0.2 - Mostly clear 10 - - - -
13/05:00am 28.9 SSW 7 8 1007.2 - 0.2 - Partly cloudy 10 - - - -
13/04:30am 29.1 SW 7 10 1006.9 - 0.2 - Partly cloudy 10 - - - -
13/04:00am 29.2 WSW 8 9 1006.7 - 0.2 - Partly cloudy 10 - - - -
13/03:30am 29.2 WSW 8 10 1006.6 - 0.2 - Partly cloudy 10 - - - -
13/03:00am 29.2 WSW 7 9 1006.8 F 0.2 - Mostly cloudy 10 - - - -
13/02:30am 29.3 WSW 7 10 1006.9 - 0.2 - Partly cloudy 10 - - - -
13/02:00am 29.3 WSW 7 9 1007.3 - 0.2 - Partly cloudy 10 - - - -
13/01:30am 29.2 W 7 8 1007.7 - 0.2 - Mostly clear 10 - - - -
13/01:00am 29.3 W 7 9 1007.9 - 0.2 - Mostly clear 10 - - - -
13/12:30am 29.4 W 7 9 1008.3 - 0.2 - Mostly clear 10 - - - -
13/12:00am 29.5 W 8 10 1008.6 S 0.2 Fine Mostly cloudy 30 - - - -
 
Date/Time
CST
Temp

°C
Wind Pressure Rain
since 9am
mm
Weather Cloud Vis
km
Sea
Height
m
Swell
Dir
 
Speed
knots
Gust
knots
hPa Trend Height
m
Period
s
Dir
12/11:30pm 29.5 W 9 11 1008.8 - 0.2 - Partly cloudy 10 - - - -
12/11:00pm 29.3 W 9 11 1008.6 - 0.2 - Partly cloudy 10 - - - -
12/10:30pm 29.4 W 8 10 1008.4 - 0.2 - Partly cloudy 10 - - - -
12/10:00pm 29.7 WNW 7 9 1008.5 - 0.2 - Partly cloudy 10 - - - -
12/09:30pm 29.8 W 8 10 1008.3 - 0.2 - Cloudy 10 - - - -
12/09:00pm 29.8 W 8 11 1008.1 R 0.2 Fine Mostly cloudy 30 - - - -
12/08:30pm 29.8 W 9 11 1007.6 - 0.2 - Partly cloudy 10 - - - -
12/08:00pm 29.8 WNW 7 9 1007.1 - 0.2 - Mostly clear 10 - - - -
12/07:30pm 29.8 WNW 7 9 1006.7 - 0.2 - Mostly clear 10 - - - -
12/07:00pm 29.8 WNW 9 12 1006.4 - 0.2 - Mostly clear 10 - - - -
12/06:30pm 30.0 WNW 8 10 1006.3 - 0.2 - Mostly clear 10 - - - -
12/06:00pm 30.1 W 9 11 1006.0 R 0.2 Fine Mostly cloudy 30 - - - -
12/05:30pm 30.1 W 8 10 1005.8 - 0.2 - Mostly clear 10 - - - -
12/05:00pm 30.2 WNW 9 11 1005.5 - 0.2 - Mostly clear 10 - - - -
12/04:30pm 30.3 WNW 12 15 1005.5 - 0.2 - Mostly clear 10 - - - -
12/04:00pm 30.4 WNW 13 15 1005.6 - 0.2 - Mostly clear 10 - - - -
12/03:30pm 30.8 WNW 13 16 1005.7 - 0.2 - Mostly clear 10 - - - -
12/03:00pm 30.7 WNW 14 16 1006.0 S 0.2 Thunder Mostly cloudy 30 - - - -
12/02:30pm 32.3 NW 15 17 1006.2 - 0.2 - Mostly clear 10 - - - -
12/02:00pm 32.2 WNW 11 15 1006.5 - 0.2 - Partly cloudy 10 - - - -
12/01:30pm 33.4 WNW 8 14 1006.8 - 0.2 - Mostly clear 10 - - - -
12/01:00pm 32.7 S 4 8 1007.1 - 0.2 - Mostly clear 10 - - - -
12/12:30pm 33.0 NW 5 9 1007.4 - 0.2 - Mostly clear 10 - - - -
12/12:00pm 31.8 WNW 7 10 1008.0 F 0.2 Fine Mostly cloudy 30 - - - -
12/11:30am 31.8 WNW 7 9 1008.4 - 0.2 - Mostly clear 10 - - - -
12/11:00am 31.3 WSW 6 10 1008.6 - 0.2 - Mostly clear 10 - - - -
12/10:30am 31.1 SSW 5 7 1008.8 - 0.2 - Mostly clear 10 - - - -
12/10:00am 30.5 ESE 7 9 1009.3 - 0.0 - Mostly clear 10 - - - -
12/09:30am 29.8 SE 7 9 1009.5 - 0.0 - Mostly clear 10 - - - -
12/09:00am 28.9 ESE 8 10 1009.4 R 10.0 Fine Partly cloudy 30 - - - -

Other Formats:

Comma delimited format used in spreadsheet applications
http://www.bom.gov.au/fwo/IDD60701/IDD60701.94120.axf

JavaScript Object Notation format (JSON) in row-major order
http://www.bom.gov.au/fwo/IDD60701/IDD60701.94120.json